createdAt,value
2022-09-12T00:00:04.851Z,12.55
2022-09-12T00:02:33.135Z,11.02
2022-09-12T00:05:06.287Z,9.02
2022-09-12T00:07:35.275Z,11.75
2022-09-12T00:10:03.510Z,10.30
2022-09-12T00:12:32.053Z,10.55
2022-09-12T00:15:03.214Z,9.18
2022-09-12T00:17:31.895Z,12.27
2022-09-12T00:20:05.827Z,12.15
2022-09-12T00:22:34.587Z,9.98
2022-09-12T00:25:03.592Z,10.18
2022-09-12T00:27:31.911Z,10.25
2022-09-12T00:30:02.759Z,10.20
2022-09-12T00:32:33.890Z,10.13
2022-09-12T00:35:03.723Z,9.70
2022-09-12T00:37:32.133Z,9.23
2022-09-12T00:40:03.429Z,9.57
2022-09-12T00:42:31.658Z,8.00
2022-09-12T00:45:03.261Z,12.65
2022-09-12T00:47:33.068Z,10.93
2022-09-12T00:50:12.496Z,9.13
2022-09-12T00:52:46.416Z,10.20
2022-09-12T00:55:47.508Z,11.02
2022-09-12T00:58:45.732Z,12.77
2022-09-12T01:01:18.104Z,10.55
2022-09-12T01:04:04.206Z,8.52
2022-09-12T01:06:41.721Z,8.85
2022-09-12T01:09:31.481Z,9.63
2022-09-12T01:12:03.769Z,7.35
2022-09-12T01:17:42.076Z,9.10
2022-09-12T01:20:35.119Z,7.05
2022-09-12T01:23:13.680Z,7.82
2022-09-12T01:26:34.159Z,9.90
2022-09-12T01:29:32.645Z,8.90
2022-09-12T01:32:40.672Z,9.30
2022-09-12T01:35:38.108Z,8.90
2022-09-12T01:38:41.148Z,8.40
2022-09-12T01:42:03.318Z,8.70
2022-09-12T01:44:43.504Z,8.10
2022-09-12T01:47:54.656Z,8.10
2022-09-12T01:50:35.135Z,10.65
2022-09-12T01:53:39.066Z,8.23
2022-09-12T01:56:27.829Z,8.82
2022-09-12T01:59:49.790Z,8.98
2022-09-12T02:02:38.855Z,9.50
2022-09-12T02:05:35.653Z,9.95
2022-09-12T02:08:46.252Z,9.77
2022-09-12T02:11:40.844Z,10.57
2022-09-12T02:14:35.198Z,10.05
2022-09-12T02:17:30.936Z,12.80
2022-09-12T02:20:47.494Z,9.80
2022-09-12T02:23:33.983Z,10.38
2022-09-12T02:26:31.224Z,10.55
2022-09-12T02:28:59.632Z,9.77
2022-09-12T02:45:01.044Z,11.57
2022-09-12T02:47:35.576Z,14.20
2022-09-12T02:50:06.230Z,9.02
2022-09-12T02:52:56.945Z,11.90
2022-09-12T02:55:34.429Z,13.20
2022-09-12T02:58:11.298Z,15.18
2022-09-12T03:01:58.572Z,16.20
2022-09-12T03:05:06.740Z,11.95
2022-09-12T03:08:11.353Z,14.00
2022-09-12T03:10:58.729Z,12.38
2022-09-12T03:20:38.940Z,11.50
2022-09-12T03:23:36.542Z,14.52
2022-09-12T03:26:24.322Z,13.48
2022-09-12T03:29:00.142Z,12.27
2022-09-12T03:31:28.625Z,12.23
2022-09-12T03:33:58.611Z,10.50
2022-09-12T03:36:59.045Z,11.17
2022-09-12T03:39:28.868Z,10.38
2022-09-12T03:41:58.407Z,10.20
2022-09-12T03:44:27.305Z,14.23
2022-09-12T03:46:58.252Z,13.85
2022-09-12T03:49:29.422Z,19.25
2022-09-12T03:51:57.628Z,15.65
2022-09-12T03:54:26.443Z,14.60
2022-09-12T03:56:56.952Z,18.45
2022-09-12T03:59:27.523Z,18.23
2022-09-12T04:01:58.816Z,15.13
2022-09-12T04:04:27.103Z,17.17
2022-09-12T04:06:56.165Z,14.70
2022-09-12T04:09:27.386Z,18.55
2022-09-12T04:11:59.382Z,16.85
2022-09-12T04:14:27.560Z,16.20
2022-09-12T04:17:02.343Z,17.75
2022-09-12T04:19:31.049Z,15.70
2022-09-12T04:21:59.286Z,14.93
2022-09-12T04:24:27.467Z,14.38
2022-09-12T04:26:55.857Z,16.00
2022-09-12T04:29:26.882Z,16.50
2022-09-12T04:31:58.391Z,14.82
2022-09-12T04:34:26.916Z,16.90
2022-09-12T04:36:55.448Z,16.08
2022-09-12T04:39:26.443Z,16.05
2022-09-12T04:44:25.513Z,15.57
2022-09-12T04:46:56.601Z,18.58
2022-09-12T04:49:27.445Z,16.98
2022-09-12T04:51:58.400Z,16.08
2022-09-12T04:56:57.299Z,14.68
2022-09-12T04:59:26.199Z,20.05
2022-09-12T05:01:55.095Z,15.93
2022-09-12T05:04:26.032Z,22.17
2022-09-12T05:09:22.562Z,17.38
2022-09-12T05:12:05.071Z,17.92
2022-09-12T05:14:39.952Z,18.30
2022-09-12T05:17:08.268Z,17.67
2022-09-12T05:19:39.439Z,16.60
2022-09-12T05:22:07.772Z,16.63
2022-09-12T05:24:36.817Z,17.40
2022-09-12T05:27:05.649Z,18.33
2022-09-12T05:29:37.837Z,19.55
2022-09-12T05:32:06.484Z,17.23
2022-09-12T05:34:56.085Z,14.68
2022-09-12T05:37:24.801Z,16.00
2022-09-12T05:39:53.779Z,20.20
2022-09-12T05:42:24.872Z,18.98
2022-09-12T05:45:20.802Z,16.20
2022-09-12T05:47:55.676Z,14.65
2022-09-12T05:50:24.210Z,17.88
2022-09-12T05:53:22.481Z,18.30
2022-09-12T05:56:24.613Z,17.42
2022-09-12T05:59:22.879Z,19.48
2022-09-12T06:01:53.772Z,17.20
2022-09-12T06:04:22.141Z,15.38
2022-09-12T06:06:53.473Z,14.23
2022-09-12T06:09:26.547Z,16.73
2022-09-12T06:12:03.559Z,18.27
2022-09-12T06:14:31.834Z,16.13
2022-09-12T06:17:06.811Z,18.15
2022-09-12T06:19:36.311Z,17.33
2022-09-12T06:22:14.471Z,16.63
2022-09-12T06:24:49.828Z,18.92
2022-09-12T06:27:21.028Z,18.10
2022-09-12T06:29:49.664Z,16.17
2022-09-12T06:32:18.440Z,19.55
2022-09-12T06:34:52.948Z,18.70
2022-09-12T06:37:21.102Z,18.25
2022-09-12T06:39:51.986Z,18.80
2022-09-12T06:44:51.435Z,14.77
2022-09-12T06:47:22.658Z,15.75
2022-09-12T06:49:51.833Z,18.77
2022-09-12T06:52:20.073Z,16.55
2022-09-12T06:54:49.983Z,15.93
2022-09-12T06:57:20.830Z,16.33
2022-09-12T06:59:49.428Z,17.90
2022-09-12T07:02:20.608Z,16.60
2022-09-12T07:04:50.807Z,19.85
2022-09-12T07:07:22.253Z,15.47
2022-09-12T07:09:50.899Z,21.98
2022-09-12T07:12:22.056Z,18.50
2022-09-12T07:14:50.308Z,15.82
2022-09-12T07:17:19.251Z,16.10
2022-09-12T07:19:50.131Z,15.90
2022-09-12T07:22:44.933Z,18.83
2022-09-12T07:25:18.679Z,17.05
2022-09-12T07:27:51.136Z,17.42
2022-09-12T07:30:19.839Z,15.05
2022-09-12T07:32:57.535Z,17.08
2022-09-12T07:35:48.810Z,13.85
2022-09-12T07:40:49.212Z,15.18
2022-09-12T07:43:20.229Z,13.90
2022-09-12T07:48:18.249Z,16.15
2022-09-12T07:50:46.826Z,15.48
2022-09-12T07:53:18.594Z,13.15
2022-09-12T07:55:57.253Z,15.80
2022-09-12T07:58:30.717Z,15.90
2022-09-12T08:01:32.558Z,15.10
2022-09-12T08:04:02.893Z,16.90
2022-09-12T08:06:34.941Z,16.92
2022-09-12T08:09:03.938Z,13.07
2022-09-12T08:11:35.785Z,14.35
2022-09-12T08:14:06.414Z,13.90
2022-09-12T08:16:38.478Z,15.05
2022-09-12T08:19:13.201Z,16.10
2022-09-12T08:21:41.512Z,14.38
2022-09-12T08:24:38.033Z,16.42
2022-09-12T08:27:40.197Z,15.02
2022-09-12T08:30:09.667Z,15.70
2022-09-12T08:32:37.998Z,21.60
2022-09-12T08:35:15.869Z,14.20
2022-09-12T08:37:44.653Z,14.82
2022-09-12T08:40:19.667Z,12.75
2022-09-12T08:43:02.923Z,15.38
2022-09-12T08:46:03.532Z,17.02
2022-09-12T08:48:59.709Z,14.20
2022-09-12T08:51:32.129Z,13.25
2022-09-12T08:54:21.653Z,11.65
2022-09-12T08:57:00.576Z,12.70
2022-09-12T08:59:49.520Z,16.33
2022-09-12T09:02:59.106Z,16.65
2022-09-12T09:05:42.395Z,13.02
2022-09-12T09:08:31.457Z,13.95
2022-09-12T09:11:11.991Z,14.98
2022-09-12T09:14:07.903Z,15.73
2022-09-12T09:16:48.245Z,16.83
2022-09-12T09:19:47.679Z,16.10
2022-09-12T09:23:12.773Z,13.10
2022-09-12T09:26:15.524Z,18.42
2022-09-12T09:28:52.970Z,12.75
2022-09-12T09:31:24.285Z,14.45
2022-09-12T09:33:59.858Z,14.65
2022-09-12T09:36:55.853Z,14.43
2022-09-12T09:39:43.300Z,15.05
2022-09-12T09:42:50.710Z,15.07
2022-09-12T09:45:25.006Z,17.15
2022-09-12T09:48:16.001Z,16.15
2022-09-12T09:50:45.094Z,15.07
2022-09-12T09:53:41.602Z,16.35
2022-09-12T09:56:36.854Z,14.23
2022-09-12T09:59:18.385Z,20.48
2022-09-12T10:02:11.216Z,15.60
2022-09-12T10:05:04.242Z,15.52
2022-09-12T10:07:36.473Z,14.68
2022-09-12T10:10:24.829Z,15.30
2022-09-12T10:13:25.222Z,15.88
2022-09-12T10:16:22.825Z,13.68
2022-09-12T10:18:53.396Z,14.05
2022-09-12T10:21:29.190Z,14.93
2022-09-12T10:24:20.027Z,13.65
2022-09-12T10:27:13.941Z,12.70
2022-09-12T10:30:13.967Z,12.60
2022-09-12T10:32:46.375Z,11.63
2022-09-12T10:35:29.883Z,18.48
2022-09-12T10:38:07.965Z,13.77
2022-09-12T10:40:42.118Z,12.80
2022-09-12T10:43:39.270Z,14.55
2022-09-12T10:46:19.093Z,13.98
2022-09-12T10:48:52.538Z,16.35
2022-09-12T10:51:26.580Z,16.17
2022-09-12T10:54:02.214Z,13.07
2022-09-12T10:56:42.921Z,16.38
2022-09-12T10:59:23.765Z,16.60
2022-09-12T11:02:33.656Z,12.68
2022-09-12T11:05:07.474Z,17.00
2022-09-12T11:07:49.358Z,15.75
2022-09-12T11:10:22.092Z,16.05
2022-09-12T11:13:08.586Z,14.00
2022-09-12T11:15:55.680Z,17.52
2022-09-12T11:18:51.733Z,15.98
2022-09-12T11:21:36.061Z,20.13
2022-09-12T11:24:44.132Z,20.10
2022-09-12T11:27:34.187Z,22.65
2022-09-12T11:30:36.133Z,21.13
2022-09-12T11:33:36.866Z,22.05
2022-09-12T11:36:32.165Z,19.00
2022-09-12T11:39:18.765Z,19.98
2022-09-12T11:42:10.880Z,17.80
2022-09-12T11:44:51.261Z,16.27
2022-09-12T11:47:42.699Z,16.80
2022-09-12T11:50:30.093Z,16.77
2022-09-12T11:53:12.384Z,16.10
2022-09-12T11:56:04.902Z,20.48
2022-09-12T11:58:34.320Z,19.25
2022-09-12T12:01:48.561Z,18.10
2022-09-12T12:04:33.056Z,16.80
2022-09-12T12:07:12.755Z,16.60
2022-09-12T12:10:14.492Z,18.08
2022-09-12T12:12:43.817Z,17.58
2022-09-12T12:15:23.182Z,18.80
2022-09-12T12:18:20.384Z,20.05
2022-09-12T12:20:48.941Z,19.73
2022-09-12T12:23:40.584Z,21.95
2022-09-12T12:26:43.538Z,21.88
2022-09-12T12:29:15.131Z,20.77
2022-09-12T12:32:04.936Z,17.98
2022-09-12T12:34:44.584Z,18.63
2022-09-12T12:37:26.897Z,17.83
2022-09-12T12:40:11.730Z,15.73
2022-09-12T14:47:29.591Z,27.05
2022-09-12T16:16:59.996Z,20.13
2022-09-12T16:22:51.446Z,25.75
2022-09-12T16:25:23.663Z,24.88
2022-09-12T16:27:54.004Z,24.55
2022-09-12T16:30:25.406Z,22.43
2022-09-12T16:33:21.131Z,25.52
2022-09-12T16:36:50.737Z,24.67
2022-09-12T16:39:22.692Z,24.48
2022-09-12T16:42:21.976Z,25.10
2022-09-12T16:45:20.492Z,21.73
2022-09-12T16:47:52.064Z,22.10
2022-09-12T16:50:20.518Z,24.75
2022-09-12T16:53:25.423Z,24.98
2022-09-12T16:56:25.618Z,25.88
2022-09-12T16:58:54.887Z,23.80
2022-09-12T17:08:19.328Z,26.73
2022-09-12T17:10:50.067Z,24.85
2022-09-12T17:13:20.965Z,23.90
2022-09-12T17:15:49.198Z,23.83
2022-09-12T17:18:20.836Z,24.75
2022-09-12T17:20:51.720Z,27.80
2022-09-12T17:23:25.878Z,26.42
2022-09-12T17:25:59.424Z,22.70
2022-09-12T17:29:26.435Z,33.63
2022-09-12T17:31:55.950Z,25.83
2022-09-12T17:34:24.341Z,29.50
2022-09-12T17:37:17.125Z,30.80
2022-09-12T17:39:48.514Z,23.90
2022-09-12T17:42:20.984Z,26.80
2022-09-12T17:44:49.259Z,24.88
2022-09-12T17:47:17.444Z,27.02
2022-09-12T17:49:48.792Z,29.80
2022-09-12T17:52:17.043Z,23.35
2022-09-12T17:54:48.414Z,29.95
2022-09-12T17:57:19.707Z,24.55
2022-09-12T17:59:47.944Z,30.25
2022-09-12T18:02:19.583Z,23.80
2022-09-12T18:04:49.145Z,24.55
2022-09-12T18:07:19.833Z,24.25
2022-09-12T18:09:48.692Z,28.70
2022-09-12T18:12:20.806Z,23.00
2022-09-12T18:14:49.005Z,26.75
2022-09-12T18:17:18.102Z,22.27
2022-09-12T18:19:50.335Z,22.95
2022-09-12T18:23:20.440Z,22.88
2022-09-12T18:26:46.574Z,21.90
2022-09-12T18:29:58.916Z,22.35
2022-09-12T18:32:49.643Z,20.95
2022-09-12T18:35:47.675Z,19.88
2022-09-12T18:38:48.732Z,27.17
2022-09-12T18:41:46.763Z,38.80
2022-09-12T18:44:45.990Z,24.13
2022-09-12T18:50:50.120Z,23.27
2022-09-12T19:00:00.852Z,23.40
2022-09-12T19:02:51.939Z,22.45
2022-09-12T19:08:46.786Z,19.15
2022-09-12T19:14:48.598Z,24.73
2022-09-12T19:20:45.538Z,18.42
2022-09-12T19:23:44.289Z,19.15
2022-09-12T19:26:49.363Z,19.13
2022-09-12T19:29:20.624Z,20.27
2022-09-12T19:31:52.118Z,20.40
2022-09-12T19:35:14.076Z,21.30
2022-09-12T19:37:49.634Z,20.33
2022-09-12T19:40:20.607Z,20.95
2022-09-12T19:42:48.921Z,17.75
2022-09-12T19:45:17.517Z,18.33
2022-09-12T19:47:47.926Z,19.40
2022-09-12T19:50:17.165Z,20.77
2022-09-12T19:52:45.512Z,19.30
2022-09-12T19:55:16.843Z,18.25
2022-09-12T19:57:45.133Z,18.42
2022-09-12T20:00:14.005Z,18.95
2022-09-12T20:02:42.250Z,17.20
2022-09-12T20:05:13.567Z,22.33
2022-09-12T20:07:41.726Z,19.67
2022-09-12T20:14:16.583Z,20.35
2022-09-12T20:17:11.091Z,18.67
2022-09-12T20:19:42.061Z,16.98
2022-09-12T20:22:40.816Z,16.63
2022-09-12T20:25:12.417Z,19.27
2022-09-12T20:35:10.677Z,19.27
2022-09-12T20:43:13.987Z,20.10
2022-09-12T20:51:12.127Z,15.82
2022-09-12T20:53:42.696Z,16.60
2022-09-12T20:56:11.084Z,19.25
2022-09-12T20:58:44.399Z,18.83
2022-09-12T21:01:16.579Z,16.70
2022-09-12T21:04:14.893Z,19.55
2022-09-12T21:07:13.700Z,16.20
2022-09-12T21:09:41.326Z,15.45
2022-09-12T21:12:10.017Z,18.20
2022-09-12T21:14:41.649Z,15.95
2022-09-12T21:17:09.843Z,19.30
2022-09-12T21:19:38.115Z,19.20
2022-09-12T21:22:12.319Z,18.38
2022-09-12T21:24:40.808Z,18.38
2022-09-12T21:27:12.782Z,19.05
2022-09-12T21:29:41.031Z,19.80
2022-09-12T21:32:13.455Z,17.08
2022-09-12T21:34:42.739Z,18.10
2022-09-12T21:37:10.927Z,16.58
2022-09-12T21:39:39.174Z,18.40
2022-09-12T21:42:07.601Z,16.38
2022-09-12T21:44:38.458Z,18.45
2022-09-12T21:47:06.892Z,19.15
2022-09-12T21:49:35.162Z,21.85
2022-09-12T21:52:05.883Z,19.58
2022-09-12T21:57:07.061Z,17.05
2022-09-12T21:59:35.392Z,18.58
2022-09-12T22:02:11.684Z,16.05
2022-09-12T22:04:41.016Z,17.55
2022-09-12T22:07:10.278Z,19.23
2022-09-12T22:09:38.511Z,22.15
2022-09-12T22:12:09.770Z,20.05
2022-09-12T22:14:38.075Z,20.60
2022-09-12T22:17:11.039Z,19.00
2022-09-12T22:19:39.686Z,19.90
2022-09-12T22:22:38.399Z,17.60
2022-09-12T22:25:37.324Z,17.65
2022-09-12T22:28:40.428Z,16.15
2022-09-12T22:31:37.761Z,12.45
2022-09-12T22:34:36.837Z,17.33
2022-09-12T22:40:24.868Z,16.23
2022-09-12T22:47:42.036Z,13.93
2022-09-12T22:50:42.310Z,11.88
2022-09-12T23:06:37.882Z,8.70
2022-09-12T23:16:05.990Z,12.55
2022-09-12T23:19:46.268Z,12.43
